createdAt,value
2018-11-29T00:00:42.010Z,76.63
2018-11-29T00:03:12.273Z,77.05
2018-11-29T00:05:42.086Z,77.14
2018-11-29T00:08:11.614Z,77.70
2018-11-29T00:10:41.218Z,77.14
2018-11-29T00:13:10.782Z,76.99
2018-11-29T00:15:40.363Z,76.83
2018-11-29T00:18:09.998Z,76.80
2018-11-29T00:20:39.553Z,76.99
2018-11-29T00:23:09.158Z,77.55
2018-11-29T00:25:38.690Z,76.62
2018-11-29T00:28:08.285Z,76.78
2018-11-29T00:30:37.883Z,77.06
2018-11-29T00:33:07.426Z,75.97
2018-11-29T00:35:36.989Z,76.90
2018-11-29T00:38:06.957Z,76.77
2018-11-29T00:40:36.500Z,77.07
2018-11-29T00:43:06.123Z,76.91
2018-11-29T00:45:35.662Z,77.16
2018-11-29T00:48:05.328Z,76.59
2018-11-29T00:50:34.959Z,77.28
2018-11-29T00:53:04.505Z,77.00
2018-11-29T00:55:34.102Z,76.73
2018-11-29T00:58:03.666Z,77.88
2018-11-29T01:00:33.248Z,77.10
2018-11-29T01:03:02.875Z,78.09
2018-11-29T01:05:32.422Z,79.01
2018-11-29T01:08:01.971Z,79.05
2018-11-29T01:10:31.581Z,80.05
2018-11-29T01:13:01.148Z,79.61
2018-11-29T01:15:30.767Z,78.88
2018-11-29T01:18:00.327Z,78.99
2018-11-29T01:20:29.879Z,78.49
2018-11-29T01:22:59.469Z,78.21
2018-11-29T01:25:29.028Z,78.25
2018-11-29T01:27:58.558Z,78.57
2018-11-29T01:30:28.146Z,78.77
2018-11-29T01:32:57.708Z,78.23
2018-11-29T01:35:27.266Z,78.29
2018-11-29T01:37:56.842Z,78.10
2018-11-29T01:40:26.378Z,78.13
2018-11-29T01:42:57.110Z,78.22
2018-11-29T01:45:27.002Z,77.61
2018-11-29T01:47:56.586Z,77.79
2018-11-29T01:50:26.191Z,78.22
2018-11-29T01:52:55.725Z,78.08
2018-11-29T01:55:25.370Z,78.35
2018-11-29T01:57:54.919Z,78.00
2018-11-29T02:00:24.515Z,78.62
2018-11-29T02:02:54.207Z,78.08
2018-11-29T02:05:23.807Z,78.46
2018-11-29T02:07:53.346Z,78.56
2018-11-29T02:10:26.189Z,78.82
2018-11-29T02:12:56.115Z,78.42
2018-11-29T02:15:25.678Z,78.51
2018-11-29T02:17:55.265Z,78.40
2018-11-29T02:20:24.806Z,77.80
2018-11-29T02:22:54.341Z,77.59
2018-11-29T02:25:23.912Z,78.57
2018-11-29T02:27:53.503Z,78.26
2018-11-29T02:30:23.691Z,78.04
2018-11-29T02:32:53.398Z,78.29
2018-11-29T02:35:22.988Z,78.84
2018-11-29T02:37:52.526Z,78.79
2018-11-29T02:40:22.178Z,78.68
2018-11-29T02:42:51.804Z,78.62
2018-11-29T02:45:23.573Z,79.10
2018-11-29T02:47:53.107Z,78.76
2018-11-29T02:50:22.647Z,78.82
2018-11-29T02:52:52.266Z,79.43
2018-11-29T02:55:21.813Z,79.22
2018-11-29T02:57:51.367Z,79.07
2018-11-29T03:00:20.962Z,79.01
2018-11-29T03:02:50.522Z,78.83
2018-11-29T03:05:20.126Z,79.25
2018-11-29T03:07:49.682Z,78.67
2018-11-29T03:10:24.390Z,78.58
2018-11-29T03:12:53.970Z,78.53
2018-11-29T03:15:23.514Z,78.67
2018-11-29T03:17:53.098Z,78.85
2018-11-29T03:20:22.644Z,79.21
2018-11-29T03:22:52.243Z,78.35
2018-11-29T03:25:21.830Z,79.37
2018-11-29T03:27:51.383Z,78.76
2018-11-29T03:30:21.862Z,78.61
2018-11-29T03:32:51.486Z,78.73
2018-11-29T03:35:21.027Z,78.78
2018-11-29T03:37:50.574Z,78.42
2018-11-29T03:40:20.180Z,79.04
2018-11-29T03:42:49.718Z,79.34
2018-11-29T03:45:19.276Z,78.55
2018-11-29T03:47:48.895Z,78.82
2018-11-29T03:50:18.763Z,78.94
2018-11-29T03:52:48.318Z,78.66
2018-11-29T03:55:17.849Z,79.39
2018-11-29T03:57:47.438Z,78.68
2018-11-29T04:00:18.533Z,78.88
2018-11-29T04:02:48.662Z,78.78
2018-11-29T04:05:18.221Z,78.73
2018-11-29T04:07:47.783Z,78.75
2018-11-29T04:10:17.545Z,78.86
2018-11-29T04:12:47.087Z,79.03
2018-11-29T04:15:16.755Z,79.88
2018-11-29T04:17:46.374Z,79.85
2018-11-29T04:20:16.859Z,79.77
2018-11-29T04:22:46.542Z,80.32
2018-11-29T04:25:16.414Z,79.87
2018-11-29T04:27:45.970Z,79.46
2018-11-29T04:30:16.377Z,80.60
2018-11-29T04:32:46.038Z,79.37
2018-11-29T04:35:15.655Z,79.72
2018-11-29T04:37:45.276Z,79.65
2018-11-29T04:40:15.767Z,79.97
2018-11-29T04:42:45.510Z,79.63
2018-11-29T04:45:16.307Z,79.27
2018-11-29T04:47:46.270Z,80.38
2018-11-29T04:50:16.835Z,79.79
2018-11-29T04:52:46.423Z,80.77
2018-11-29T04:55:16.029Z,80.17
2018-11-29T04:57:45.612Z,79.80
2018-11-29T05:00:16.235Z,80.26
2018-11-29T05:02:45.970Z,80.06
2018-11-29T05:05:15.638Z,79.47
2018-11-29T05:07:45.215Z,79.80
2018-11-29T05:10:18.310Z,80.16
2018-11-29T05:12:48.321Z,79.90
2018-11-29T05:15:17.888Z,79.75
2018-11-29T05:17:47.444Z,79.76
2018-11-29T05:20:17.013Z,79.58
2018-11-29T05:22:46.564Z,79.46
2018-11-29T05:25:17.048Z,79.39
2018-11-29T05:27:45.753Z,79.85
2018-11-29T05:30:15.578Z,79.66
2018-11-29T05:32:45.165Z,79.23
2018-11-29T05:35:14.717Z,79.91
2018-11-29T05:37:44.246Z,80.05
2018-11-29T05:40:14.404Z,79.65
2018-11-29T05:42:44.210Z,80.01
2018-11-29T05:45:13.767Z,79.91
2018-11-29T05:47:43.334Z,79.74
2018-11-29T05:50:13.006Z,79.36
2018-11-29T05:52:42.620Z,79.32
2018-11-29T05:55:12.824Z,79.64
2018-11-29T05:57:42.358Z,79.65
2018-11-29T06:00:14.261Z,79.72
2018-11-29T06:02:44.387Z,79.37
2018-11-29T06:05:15.545Z,79.32
2018-11-29T06:07:45.140Z,79.71
2018-11-29T06:10:17.978Z,79.76
2018-11-29T06:12:48.054Z,79.29
2018-11-29T06:15:17.697Z,79.76
2018-11-29T06:17:47.259Z,79.76
2018-11-29T06:20:17.757Z,79.81
2018-11-29T06:22:47.349Z,79.54
2018-11-29T06:25:16.904Z,80.31
2018-11-29T06:27:46.511Z,80.02
2018-11-29T06:30:18.020Z,80.80
2018-11-29T06:32:48.143Z,80.27
2018-11-29T06:35:17.743Z,80.04
2018-11-29T06:37:47.337Z,81.00
2018-11-29T06:40:17.550Z,80.47
2018-11-29T06:42:47.123Z,80.73
2018-11-29T06:45:17.912Z,80.81
2018-11-29T06:47:47.909Z,80.61
2018-11-29T06:50:17.509Z,80.89
2018-11-29T06:52:49.177Z,80.41
2018-11-29T06:55:20.988Z,80.72
2018-11-29T06:57:50.610Z,80.67
2018-11-29T07:00:37.504Z,80.56
2018-11-29T07:03:07.449Z,80.07
2018-11-29T07:05:36.994Z,79.82
2018-11-29T07:08:06.840Z,79.61
2018-11-29T07:10:36.568Z,79.36
2018-11-29T07:13:07.338Z,79.93
2018-11-29T07:15:36.871Z,79.89
2018-11-29T07:18:06.605Z,80.16
2018-11-29T07:20:36.178Z,80.13
2018-11-29T07:23:06.127Z,80.26
2018-11-29T07:25:35.659Z,80.22
2018-11-29T07:28:05.276Z,80.03
2018-11-29T07:30:34.867Z,80.12
2018-11-29T07:33:04.451Z,80.63
2018-11-29T07:35:34.001Z,80.84
2018-11-29T07:38:03.539Z,80.53
2018-11-29T07:40:33.094Z,80.41
2018-11-29T07:43:02.698Z,80.72
2018-11-29T07:45:33.118Z,79.90
2018-11-29T07:48:02.691Z,80.20
2018-11-29T07:50:32.271Z,80.65
2018-11-29T07:53:01.842Z,80.28
2018-11-29T07:55:31.411Z,80.07
2018-11-29T07:58:01.006Z,80.13
2018-11-29T08:00:30.559Z,80.17
2018-11-29T08:03:00.131Z,80.81
2018-11-29T08:05:29.682Z,80.37
2018-11-29T08:07:59.242Z,80.29
2018-11-29T08:10:28.812Z,80.75
2018-11-29T08:12:58.401Z,80.55
2018-11-29T08:15:27.938Z,81.02
2018-11-29T08:17:57.538Z,81.31
2018-11-29T08:20:27.066Z,80.65
2018-11-29T08:22:56.758Z,81.15
2018-11-29T08:25:26.370Z,80.46
2018-11-29T08:27:55.903Z,80.60
2018-11-29T08:30:25.466Z,80.64
2018-11-29T08:32:55.054Z,80.54
2018-11-29T08:35:24.673Z,80.15
2018-11-29T08:37:54.222Z,80.97
2018-11-29T08:40:23.809Z,80.57
2018-11-29T08:42:53.364Z,80.56
2018-11-29T08:45:22.913Z,81.02
2018-11-29T08:47:52.531Z,80.57
2018-11-29T08:50:22.063Z,80.34
2018-11-29T08:52:51.563Z,80.90
2018-11-29T08:55:21.169Z,80.95
2018-11-29T08:57:50.794Z,81.30
2018-11-29T09:00:22.762Z,80.91
2018-11-29T09:02:52.329Z,80.79
2018-11-29T09:05:21.898Z,80.67
2018-11-29T09:07:51.484Z,80.80
2018-11-29T09:10:22.982Z,80.69
2018-11-29T09:12:53.119Z,80.67
2018-11-29T09:15:22.662Z,80.55
2018-11-29T09:17:52.195Z,81.05
2018-11-29T09:20:22.497Z,81.09
2018-11-29T09:22:52.042Z,80.61
2018-11-29T09:25:22.621Z,80.26
2018-11-29T09:27:52.167Z,80.72
2018-11-29T09:30:22.459Z,81.06
2018-11-29T09:32:53.151Z,80.99
2018-11-29T09:35:22.858Z,80.63
2018-11-29T09:37:52.418Z,80.53
2018-11-29T09:40:21.940Z,80.27
2018-11-29T09:42:51.598Z,80.34
2018-11-29T09:45:22.179Z,80.57
2018-11-29T09:47:55.894Z,80.38
2018-11-29T09:50:26.258Z,80.66
2018-11-29T09:52:55.838Z,80.33
2018-11-29T09:55:25.378Z,79.87
2018-11-29T09:57:54.950Z,80.18
2018-11-29T10:00:28.489Z,79.41
2018-11-29T10:03:07.403Z,79.85
2018-11-29T10:05:37.143Z,79.72
2018-11-29T10:08:11.852Z,79.60
2018-11-29T10:10:37.426Z,79.66
2018-11-29T10:13:07.096Z,80.03
2018-11-29T10:15:36.646Z,79.46
2018-11-29T10:18:06.766Z,79.46
2018-11-29T10:20:36.335Z,79.29
2018-11-29T10:23:06.615Z,79.28
2018-11-29T10:25:37.202Z,79.35
2018-11-29T10:28:12.243Z,79.06
2018-11-29T10:30:47.046Z,79.53
2018-11-29T10:33:16.635Z,79.75
2018-11-29T10:35:46.252Z,79.68
2018-11-29T10:38:15.814Z,79.44
2018-11-29T10:40:45.418Z,79.53
2018-11-29T10:43:14.954Z,79.73
2018-11-29T10:45:44.517Z,79.74
2018-11-29T10:48:16.601Z,79.52
2018-11-29T10:50:46.119Z,79.65
2018-11-29T10:53:15.650Z,79.59
2018-11-29T10:55:45.259Z,79.58
2018-11-29T10:58:14.794Z,80.15
2018-11-29T11:00:49.458Z,79.50
2018-11-29T11:03:19.938Z,79.85
2018-11-29T11:05:50.767Z,80.15
2018-11-29T11:08:20.934Z,80.10
2018-11-29T11:10:50.746Z,80.05
2018-11-29T11:13:20.294Z,80.26
2018-11-29T11:15:49.818Z,79.75
2018-11-29T11:18:19.474Z,79.60
2018-11-29T11:20:49.007Z,79.99
2018-11-29T11:23:18.550Z,79.30
2018-11-29T11:25:48.136Z,79.62
2018-11-29T11:28:17.658Z,79.73
2018-11-29T11:30:47.223Z,79.58
2018-11-29T11:33:16.843Z,79.04
2018-11-29T11:35:46.390Z,79.88
2018-11-29T11:38:15.920Z,79.30
2018-11-29T11:40:45.491Z,79.53
2018-11-29T11:43:15.078Z,78.91
2018-11-29T11:45:44.622Z,79.29
2018-11-29T11:48:14.195Z,78.74
2018-11-29T11:50:43.725Z,78.79
2018-11-29T11:53:13.246Z,78.14
2018-11-29T11:55:42.822Z,78.37
2018-11-29T11:58:12.337Z,78.35
2018-11-29T12:00:41.885Z,78.26
2018-11-29T12:03:13.558Z,78.40
2018-11-29T12:05:43.135Z,77.57
2018-11-29T12:08:12.810Z,78.00
2018-11-29T12:10:43.390Z,78.68
2018-11-29T12:13:12.951Z,77.76
2018-11-29T12:15:42.482Z,77.94
2018-11-29T12:18:13.046Z,77.69
2018-11-29T12:20:42.637Z,77.43
2018-11-29T12:23:12.191Z,77.86
2018-11-29T12:25:41.786Z,77.42
2018-11-29T12:28:11.302Z,78.06
2018-11-29T12:30:43.766Z,77.13
2018-11-29T12:33:13.286Z,77.09
2018-11-29T12:35:42.813Z,76.93
2018-11-29T12:38:12.370Z,76.65
2018-11-29T12:40:41.896Z,76.64
2018-11-29T12:43:11.443Z,77.08
2018-11-29T12:45:40.974Z,76.78
2018-11-29T12:48:10.546Z,76.47
2018-11-29T12:50:40.466Z,76.21
2018-11-29T12:53:10.009Z,75.84
2018-11-29T12:55:42.078Z,76.46
2018-11-29T12:58:11.687Z,76.00
2018-11-29T13:00:41.210Z,76.28
2018-11-29T13:03:11.366Z,75.76
2018-11-29T13:05:40.909Z,75.48
2018-11-29T13:08:10.802Z,75.36
2018-11-29T13:10:40.350Z,75.46
2018-11-29T13:13:09.918Z,75.58
2018-11-29T13:15:39.452Z,75.31
2018-11-29T13:18:09.732Z,76.17
2018-11-29T13:20:39.315Z,75.46
2018-11-29T13:23:08.878Z,75.49
2018-11-29T13:25:38.432Z,75.55
2018-11-29T13:28:08.466Z,74.84
2018-11-29T13:30:38.474Z,74.89
2018-11-29T13:33:09.434Z,75.49
2018-11-29T13:35:39.036Z,74.66
2018-11-29T13:38:12.160Z,74.63
2018-11-29T13:40:43.320Z,75.64
2018-11-29T13:43:12.863Z,75.16
2018-11-29T13:45:42.443Z,75.50
2018-11-29T13:48:12.855Z,74.69
2018-11-29T13:50:42.465Z,75.32
2018-11-29T13:53:11.955Z,75.60
2018-11-29T13:55:41.540Z,75.82
2018-11-29T13:58:11.056Z,75.65
2018-11-29T14:00:40.656Z,75.26
2018-11-29T14:03:12.453Z,75.75
2018-11-29T14:05:42.029Z,76.39
2018-11-29T14:08:11.767Z,75.75
2018-11-29T14:10:42.483Z,75.61
2018-11-29T14:13:12.153Z,76.42
2018-11-29T14:15:41.706Z,76.35
2018-11-29T14:18:11.278Z,75.90
2018-11-29T14:20:40.827Z,76.20
2018-11-29T14:23:10.463Z,76.87
2018-11-29T14:25:40.050Z,75.66
2018-11-29T14:28:09.992Z,75.95
2018-11-29T14:30:39.530Z,76.32
2018-11-29T14:33:09.087Z,76.19
2018-11-29T14:35:38.643Z,76.80
2018-11-29T14:38:08.178Z,76.12
2018-11-29T14:40:37.977Z,76.80
2018-11-29T14:43:07.855Z,76.12
2018-11-29T14:45:37.462Z,76.43
2018-11-29T14:48:07.062Z,76.50
2018-11-29T14:50:40.162Z,76.62
2018-11-29T14:53:10.280Z,77.30
2018-11-29T14:55:40.511Z,76.88
2018-11-29T14:58:11.115Z,76.85
2018-11-29T15:00:40.701Z,76.93
2018-11-29T15:03:14.678Z,76.52
2018-11-29T15:05:44.706Z,76.37
2018-11-29T15:08:14.218Z,75.73
2018-11-29T15:10:43.773Z,76.16
2018-11-29T15:13:13.580Z,76.29
2018-11-29T15:15:43.666Z,75.78
2018-11-29T15:18:13.258Z,75.11
2018-11-29T15:20:46.974Z,75.64
2018-11-29T15:23:18.721Z,75.46
2018-11-29T15:25:48.306Z,74.84
2018-11-29T15:28:17.851Z,75.01
2018-11-29T15:30:47.451Z,74.98
2018-11-29T15:33:17.044Z,74.90
2018-11-29T15:35:46.590Z,74.49
2018-11-29T15:38:16.114Z,74.44
2018-11-29T15:40:45.666Z,74.21
2018-11-29T15:43:15.184Z,74.00
2018-11-29T15:45:44.746Z,74.03
2018-11-29T15:48:14.267Z,74.72
2018-11-29T15:50:43.802Z,74.05
2018-11-29T15:53:13.342Z,73.64
2018-11-29T15:55:43.003Z,73.62
2018-11-29T15:58:12.450Z,73.83
2018-11-29T16:00:42.058Z,73.36
2018-11-29T16:03:11.578Z,73.84
2018-11-29T16:05:41.386Z,73.64
2018-11-29T16:08:10.750Z,73.14
2018-11-29T16:10:40.301Z,72.76
2018-11-29T16:13:09.827Z,73.42
2018-11-29T16:15:39.487Z,72.27
2018-11-29T16:18:09.035Z,72.82
2018-11-29T16:20:39.478Z,73.05
2018-11-29T16:23:10.098Z,72.56
2018-11-29T16:25:39.661Z,71.89
2018-11-29T16:28:09.983Z,72.35
2018-11-29T16:30:47.188Z,71.70
2018-11-29T16:33:35.145Z,72.30
2018-11-29T16:36:04.826Z,71.45
2018-11-29T16:38:34.354Z,71.77
2018-11-29T16:41:03.954Z,70.49
2018-11-29T16:43:33.511Z,71.83
2018-11-29T16:46:03.108Z,71.18
2018-11-29T16:48:32.643Z,70.87
2018-11-29T16:51:02.226Z,70.46
2018-11-29T16:53:31.742Z,69.91
2018-11-29T16:56:01.305Z,70.15
2018-11-29T16:58:31.418Z,70.05
2018-11-29T17:01:01.055Z,70.12
2018-11-29T17:03:30.590Z,69.12
2018-11-29T17:06:00.150Z,69.09
2018-11-29T17:08:29.708Z,69.62
2018-11-29T17:10:59.270Z,69.40
2018-11-29T17:13:28.799Z,68.58
2018-11-29T17:15:58.343Z,68.12
2018-11-29T17:18:27.887Z,69.15
2018-11-29T17:20:57.454Z,67.84
2018-11-29T17:23:26.974Z,68.01
2018-11-29T17:25:56.575Z,67.36
2018-11-29T17:28:26.113Z,67.82
2018-11-29T17:30:55.662Z,68.46
2018-11-29T17:33:25.230Z,68.20
2018-11-29T17:35:54.850Z,67.81
2018-11-29T17:38:24.375Z,67.22
2018-11-29T17:40:53.899Z,66.80
2018-11-29T17:43:23.431Z,66.33
2018-11-29T17:45:53.015Z,66.33
2018-11-29T17:48:22.566Z,66.84
2018-11-29T17:50:52.106Z,66.81
2018-11-29T17:53:21.645Z,65.65
2018-11-29T17:55:51.195Z,66.28
2018-11-29T17:58:20.714Z,64.65
2018-11-29T18:00:51.708Z,65.79
2018-11-29T18:03:22.261Z,64.77
2018-11-29T18:05:51.821Z,64.62
2018-11-29T18:08:21.330Z,65.62
2018-11-29T18:10:54.100Z,64.34
2018-11-29T18:13:27.597Z,64.53
2018-11-29T18:15:57.175Z,64.45
2018-11-29T18:18:26.728Z,64.06
2018-11-29T18:20:56.286Z,64.32
2018-11-29T18:23:25.800Z,64.75
2018-11-29T18:25:55.413Z,64.60
2018-11-29T18:28:24.935Z,64.39
2018-11-29T18:30:54.479Z,64.95
2018-11-29T18:33:24.010Z,64.25
2018-11-29T18:35:53.588Z,63.64
2018-11-29T18:38:23.118Z,64.24
2018-11-29T18:40:52.667Z,64.14
2018-11-29T18:43:22.238Z,63.94
2018-11-29T18:45:51.790Z,63.68
2018-11-29T18:48:21.329Z,63.45
2018-11-29T18:50:50.842Z,63.95
2018-11-29T18:53:20.361Z,63.54
2018-11-29T18:55:49.898Z,64.06
2018-11-29T18:58:19.438Z,63.48
2018-11-29T19:00:48.968Z,63.59
2018-11-29T19:03:18.531Z,65.02
2018-11-29T19:05:48.058Z,63.64
2018-11-29T19:08:17.626Z,62.34
2018-11-29T19:10:47.194Z,63.43
2018-11-29T19:13:17.626Z,62.83
2018-11-29T19:15:47.160Z,62.74
2018-11-29T19:18:16.778Z,62.27
2018-11-29T19:20:46.330Z,61.79
2018-11-29T19:23:15.870Z,61.84
2018-11-29T19:25:45.389Z,61.52
2018-11-29T19:28:14.927Z,61.52
2018-11-29T19:30:44.458Z,61.57
2018-11-29T19:33:17.529Z,61.26
2018-11-29T19:35:48.950Z,60.99
2018-11-29T19:38:18.518Z,61.31
2018-11-29T19:40:48.058Z,60.89
2018-11-29T19:43:17.837Z,60.25
2018-11-29T19:45:47.405Z,59.63
2018-11-29T19:48:16.986Z,59.52
2018-11-29T19:50:46.500Z,59.76
2018-11-29T19:53:22.454Z,59.32
2018-11-29T19:55:53.882Z,57.42
2018-11-29T19:58:23.448Z,57.40
2018-11-29T20:00:52.974Z,57.86
2018-11-29T20:03:22.552Z,56.91
2018-11-29T20:05:52.102Z,57.81
2018-11-29T20:08:21.695Z,57.98
2018-11-29T20:10:51.214Z,57.76
2018-11-29T20:13:21.434Z,56.11
2018-11-29T20:15:52.338Z,55.51
2018-11-29T20:18:21.910Z,57.72
2018-11-29T20:20:51.492Z,56.86
2018-11-29T20:23:21.126Z,57.26
2018-11-29T20:25:50.710Z,57.26
2018-11-29T20:28:20.263Z,56.88
2018-11-29T20:30:49.795Z,57.39
2018-11-29T20:33:19.331Z,57.61
2018-11-29T20:35:48.884Z,57.11
2018-11-29T20:38:18.444Z,57.62
2018-11-29T20:40:47.989Z,57.60
2018-11-29T20:43:17.566Z,57.00
2018-11-29T20:45:52.362Z,58.27
2018-11-29T20:48:23.414Z,57.97
2018-11-29T20:50:54.150Z,56.88
2018-11-29T20:53:28.287Z,57.33
2018-11-29T20:55:57.822Z,56.97
2018-11-29T20:58:27.378Z,56.51
2018-11-29T21:00:56.906Z,56.47
2018-11-29T21:03:26.446Z,56.31
2018-11-29T21:05:55.974Z,56.79
2018-11-29T21:08:25.563Z,56.62
2018-11-29T21:10:55.275Z,57.27
2018-11-29T21:13:24.812Z,57.42
2018-11-29T21:15:54.349Z,56.91
2018-11-29T21:18:23.902Z,56.11
2018-11-29T21:20:53.424Z,57.12
2018-11-29T21:23:22.989Z,56.26
2018-11-29T21:25:52.518Z,55.52
2018-11-29T21:28:22.079Z,57.50
2018-11-29T21:30:51.635Z,56.14
2018-11-29T21:33:21.176Z,56.78
2018-11-29T21:35:50.700Z,56.59
2018-11-29T21:38:21.916Z,57.22
2018-11-29T21:40:56.062Z,56.18
2018-11-29T21:43:25.690Z,56.67
2018-11-29T21:45:55.246Z,57.35
2018-11-29T21:48:24.790Z,56.35
2018-11-29T21:50:54.370Z,56.12
2018-11-29T21:53:23.923Z,56.12
2018-11-29T21:55:53.971Z,54.29
2018-11-29T21:58:23.540Z,55.97
2018-11-29T22:00:53.051Z,54.62
2018-11-29T22:03:22.603Z,54.91
2018-11-29T22:05:52.159Z,54.26
2018-11-29T22:08:21.693Z,55.12
2018-11-29T22:10:51.262Z,55.29
2018-11-29T22:13:20.804Z,55.38
2018-11-29T22:15:50.330Z,54.51
2018-11-29T22:18:22.783Z,54.49
2018-11-29T22:20:53.645Z,54.57
2018-11-29T22:23:23.202Z,54.52
2018-11-29T22:25:53.173Z,54.11
2018-11-29T22:28:22.711Z,53.99
2018-11-29T22:30:52.306Z,53.83
2018-11-29T22:33:21.836Z,54.55
2018-11-29T22:35:51.363Z,53.94
2018-11-29T22:38:20.922Z,54.24
2018-11-29T22:40:50.466Z,54.20
2018-11-29T22:43:20.096Z,54.29
2018-11-29T22:45:49.622Z,54.43
2018-11-29T22:48:19.206Z,53.96
2018-11-29T22:50:48.760Z,53.21
2018-11-29T22:53:18.322Z,53.95
2018-11-29T22:55:47.873Z,53.31
2018-11-29T22:58:17.415Z,54.64
2018-11-29T23:00:49.934Z,53.97
2018-11-29T23:03:19.554Z,53.76
2018-11-29T23:05:49.098Z,53.52
2018-11-29T23:08:18.652Z,51.70
2018-11-29T23:10:48.168Z,52.23
2018-11-29T23:13:17.790Z,53.08
2018-11-29T23:15:47.346Z,52.63
2018-11-29T23:18:16.898Z,52.39
2018-11-29T23:20:46.435Z,52.29
2018-11-29T23:23:15.960Z,51.60
2018-11-29T23:25:45.458Z,51.33
2018-11-29T23:28:15.067Z,51.99
2018-11-29T23:30:44.604Z,53.43
2018-11-29T23:33:14.139Z,52.40
2018-11-29T23:35:43.654Z,52.04
2018-11-29T23:38:13.210Z,51.72
2018-11-29T23:40:42.790Z,51.28
2018-11-29T23:43:12.327Z,52.45
2018-11-29T23:45:41.872Z,51.54
2018-11-29T23:48:11.431Z,52.01
2018-11-29T23:50:40.936Z,52.95
2018-11-29T23:53:10.494Z,52.97
2018-11-29T23:55:40.030Z,52.33
2018-11-29T23:58:09.586Z,52.14
